sensor_id;sensor_type;location;lat;lon;timestamp;P1;durP1;ratioP1;P2;durP2;ratioP2
3527;SDS011;1778;47.966;7.854;2023-05-07T00:00:35;2.93;;;2.83;;
3527;SDS011;1778;47.966;7.854;2023-05-07T00:01:36;2.83;;;2.83;;
3527;SDS011;1778;47.966;7.854;2023-05-07T00:02:38;3.20;;;3.10;;
3527;SDS011;1778;47.966;7.854;2023-05-07T00:03:39;3.20;;;3.10;;
3527;SDS011;1778;47.966;7.854;2023-05-07T00:04:41;4.00;;;2.93;;
3527;SDS011;1778;47.966;7.854;2023-05-07T00:05:43;2.67;;;2.63;;
3527;SDS011;1778;47.966;7.854;2023-05-07T00:06:44;2.57;;;2.50;;
3527;SDS011;1778;47.966;7.854;2023-05-07T00:07:46;3.00;;;3.00;;
3527;SDS011;1778;47.966;7.854;2023-05-07T00:08:48;2.70;;;2.63;;
3527;SDS011;1778;47.966;7.854;2023-05-07T00:09:49;2.83;;;2.73;;
3527;SDS011;1778;47.966;7.854;2023-05-07T00:10:51;2.47;;;2.43;;
3527;SDS011;1778;47.966;7.854;2023-05-07T00:11:53;2.40;;;2.40;;
3527;SDS011;1778;47.966;7.854;2023-05-07T00:12:54;2.70;;;2.60;;
3527;SDS011;1778;47.966;7.854;2023-05-07T00:13:56;2.47;;;2.37;;
3527;SDS011;1778;47.966;7.854;2023-05-07T00:14:57;2.93;;;2.83;;
3527;SDS011;1778;47.966;7.854;2023-05-07T00:15:59;2.70;;;2.60;;
3527;SDS011;1778;47.966;7.854;2023-05-07T00:17:00;4.10;;;2.60;;
3527;SDS011;1778;47.966;7.854;2023-05-07T00:18:02;3.27;;;3.10;;
3527;SDS011;1778;47.966;7.854;2023-05-07T00:19:03;2.77;;;2.67;;
3527;SDS011;1778;47.966;7.854;2023-05-07T00:20:05;2.90;;;2.60;;
3527;SDS011;1778;47.966;7.854;2023-05-07T00:21:07;2.43;;;2.43;;
3527;SDS011;1778;47.966;7.854;2023-05-07T00:22:09;3.00;;;2.90;;
3527;SDS011;1778;47.966;7.854;2023-05-07T00:23:11;2.50;;;2.50;;
3527;SDS011;1778;47.966;7.854;2023-05-07T00:24:12;2.63;;;2.63;;
3527;SDS011;1778;47.966;7.854;2023-05-07T00:25:14;2.20;;;2.20;;
3527;SDS011;1778;47.966;7.854;2023-05-07T00:26:15;2.40;;;2.40;;
3527;SDS011;1778;47.966;7.854;2023-05-07T00:27:19;2.73;;;2.73;;
3527;SDS011;1778;47.966;7.854;2023-05-07T00:28:21;2.57;;;2.57;;
3527;SDS011;1778;47.966;7.854;2023-05-07T00:29:22;2.40;;;2.40;;
3527;SDS011;1778;47.966;7.854;2023-05-07T00:30:24;5.33;;;3.23;;
3527;SDS011;1778;47.966;7.854;2023-05-07T00:31:25;2.30;;;2.30;;
3527;SDS011;1778;47.966;7.854;2023-05-07T00:32:27;2.30;;;2.30;;
3527;SDS011;1778;47.966;7.854;2023-05-07T00:33:28;3.13;;;2.80;;
3527;SDS011;1778;47.966;7.854;2023-05-07T00:34:30;3.10;;;3.00;;
3527;SDS011;1778;47.966;7.854;2023-05-07T00:35:32;6.83;;;3.40;;
3527;SDS011;1778;47.966;7.854;2023-05-07T00:36:34;2.73;;;2.73;;
3527;SDS011;1778;47.966;7.854;2023-05-07T00:37:36;2.73;;;2.63;;
3527;SDS011;1778;47.966;7.854;2023-05-07T00:38:37;2.40;;;2.40;;
3527;SDS011;1778;47.966;7.854;2023-05-07T00:39:39;3.07;;;2.97;;
3527;SDS011;1778;47.966;7.854;2023-05-07T00:40:40;2.77;;;2.77;;
3527;SDS011;1778;47.966;7.854;2023-05-07T00:41:42;3.43;;;2.57;;
3527;SDS011;1778;47.966;7.854;2023-05-07T00:42:44;2.63;;;2.63;;
3527;SDS011;1778;47.966;7.854;2023-05-07T00:43:48;3.17;;;3.07;;
3527;SDS011;1778;47.966;7.854;2023-05-07T00:44:53;3.13;;;3.03;;
3527;SDS011;1778;47.966;7.854;2023-05-07T00:45:54;2.83;;;2.73;;
3527;SDS011;1778;47.966;7.854;2023-05-07T00:46:57;2.33;;;2.33;;
3527;SDS011;1778;47.966;7.854;2023-05-07T00:47:59;5.53;;;2.63;;
3527;SDS011;1778;47.966;7.854;2023-05-07T00:49:02;2.50;;;2.40;;
3527;SDS011;1778;47.966;7.854;2023-05-07T00:50:04;2.70;;;2.70;;
3527;SDS011;1778;47.966;7.854;2023-05-07T00:51:06;2.30;;;2.30;;
3527;SDS011;1778;47.966;7.854;2023-05-07T00:52:09;2.77;;;2.67;;
3527;SDS011;1778;47.966;7.854;2023-05-07T00:53:12;2.47;;;2.47;;
3527;SDS011;1778;47.966;7.854;2023-05-07T00:54:14;3.00;;;2.90;;
3527;SDS011;1778;47.966;7.854;2023-05-07T00:55:16;2.93;;;2.83;;
3527;SDS011;1778;47.966;7.854;2023-05-07T00:56:18;2.67;;;2.67;;
3527;SDS011;1778;47.966;7.854;2023-05-07T00:57:21;2.40;;;2.40;;
3527;SDS011;1778;47.966;7.854;2023-05-07T00:58:24;2.57;;;2.57;;
3527;SDS011;1778;47.966;7.854;2023-05-07T00:59:26;2.50;;;2.50;;
3527;SDS011;1778;47.966;7.854;2023-05-07T01:00:29;2.67;;;2.57;;
3527;SDS011;1778;47.966;7.854;2023-05-07T01:01:31;2.43;;;2.33;;
3527;SDS011;1778;47.966;7.854;2023-05-07T01:02:33;2.30;;;2.30;;
3527;SDS011;1778;47.966;7.854;2023-05-07T01:03:35;2.87;;;2.67;;
3527;SDS011;1778;47.966;7.854;2023-05-07T01:04:36;2.57;;;2.47;;
3527;SDS011;1778;47.966;7.854;2023-05-07T01:05:39;2.73;;;2.63;;
3527;SDS011;1778;47.966;7.854;2023-05-07T01:06:42;3.00;;;2.90;;
3527;SDS011;1778;47.966;7.854;2023-05-07T01:07:46;7.20;;;2.80;;
3527;SDS011;1778;47.966;7.854;2023-05-07T01:08:48;2.33;;;2.33;;
3527;SDS011;1778;47.966;7.854;2023-05-07T01:09:52;2.33;;;2.30;;
3527;SDS011;1778;47.966;7.854;2023-05-07T01:10:55;5.90;;;2.60;;
3527;SDS011;1778;47.966;7.854;2023-05-07T01:11:58;2.50;;;2.40;;
3527;SDS011;1778;47.966;7.854;2023-05-07T01:13:00;2.93;;;2.83;;
3527;SDS011;1778;47.966;7.854;2023-05-07T01:14:02;2.43;;;2.33;;
3527;SDS011;1778;47.966;7.854;2023-05-07T01:15:05;2.77;;;2.63;;
3527;SDS011;1778;47.966;7.854;2023-05-07T01:16:08;2.90;;;2.80;;
3527;SDS011;1778;47.966;7.854;2023-05-07T01:17:11;2.60;;;2.50;;
3527;SDS011;1778;47.966;7.854;2023-05-07T01:18:12;3.10;;;2.80;;
3527;SDS011;1778;47.966;7.854;2023-05-07T01:20:41;2.77;;;2.77;;
3527;SDS011;1778;47.966;7.854;2023-05-07T01:21:47;2.77;;;2.77;;
3527;SDS011;1778;47.966;7.854;2023-05-07T01:22:52;3.10;;;3.00;;
3527;SDS011;1778;47.966;7.854;2023-05-07T01:23:54;2.90;;;2.70;;
3527;SDS011;1778;47.966;7.854;2023-05-07T01:24:56;2.90;;;2.80;;
3527;SDS011;1778;47.966;7.854;2023-05-07T01:26:01;2.27;;;2.27;;
3527;SDS011;1778;47.966;7.854;2023-05-07T01:27:04;2.87;;;2.87;;
3527;SDS011;1778;47.966;7.854;2023-05-07T01:28:07;2.47;;;2.47;;
3527;SDS011;1778;47.966;7.854;2023-05-07T01:29:11;2.60;;;2.50;;
3527;SDS011;1778;47.966;7.854;2023-05-07T01:30:12;2.90;;;2.90;;
3527;SDS011;1778;47.966;7.854;2023-05-07T01:31:14;2.80;;;2.80;;
3527;SDS011;1778;47.966;7.854;2023-05-07T01:32:18;2.43;;;2.33;;
3527;SDS011;1778;47.966;7.854;2023-05-07T01:33:24;4.20;;;4.00;;
3527;SDS011;1778;47.966;7.854;2023-05-07T01:34:32;3.10;;;3.00;;
3527;SDS011;1778;47.966;7.854;2023-05-07T01:35:38;2.97;;;2.87;;
3527;SDS011;1778;47.966;7.854;2023-05-07T01:36:44;2.77;;;2.77;;
3527;SDS011;1778;47.966;7.854;2023-05-07T01:37:47;2.90;;;2.80;;
3527;SDS011;1778;47.966;7.854;2023-05-07T01:38:50;3.63;;;2.70;;
3527;SDS011;1778;47.966;7.854;2023-05-07T01:39:52;3.50;;;3.40;;
3527;SDS011;1778;47.966;7.854;2023-05-07T01:40:55;3.70;;;3.60;;
3527;SDS011;1778;47.966;7.854;2023-05-07T01:41:57;3.03;;;3.00;;
3527;SDS011;1778;47.966;7.854;2023-05-07T01:43:03;3.10;;;3.00;;
3527;SDS011;1778;47.966;7.854;2023-05-07T01:44:08;2.80;;;2.80;;
3527;SDS011;1778;47.966;7.854;2023-05-07T01:45:11;3.20;;;3.10;;
3527;SDS011;1778;47.966;7.854;2023-05-07T01:46:13;2.87;;;2.87;;
3527;SDS011;1778;47.966;7.854;2023-05-07T01:47:16;2.87;;;2.67;;
3527;SDS011;1778;47.966;7.854;2023-05-07T01:48:18;2.80;;;2.80;;
3527;SDS011;1778;47.966;7.854;2023-05-07T01:49:20;3.50;;;3.30;;
3527;SDS011;1778;47.966;7.854;2023-05-07T01:50:21;3.20;;;3.20;;
3527;SDS011;1778;47.966;7.854;2023-05-07T01:51:24;3.13;;;3.10;;
3527;SDS011;1778;47.966;7.854;2023-05-07T01:52:26;3.07;;;3.07;;
3527;SDS011;1778;47.966;7.854;2023-05-07T01:53:29;3.40;;;3.30;;
3527;SDS011;1778;47.966;7.854;2023-05-07T01:54:37;3.20;;;3.10;;
3527;SDS011;1778;47.966;7.854;2023-05-07T01:55:39;3.70;;;3.60;;
3527;SDS011;1778;47.966;7.854;2023-05-07T01:56:41;3.27;;;3.27;;
3527;SDS011;1778;47.966;7.854;2023-05-07T01:57:43;3.37;;;3.27;;
3527;SDS011;1778;47.966;7.854;2023-05-07T01:58:45;3.53;;;3.43;;
3527;SDS011;1778;47.966;7.854;2023-05-07T01:59:49;3.60;;;3.50;;
3527;SDS011;1778;47.966;7.854;2023-05-07T02:00:51;3.37;;;3.27;;
3527;SDS011;1778;47.966;7.854;2023-05-07T02:01:53;3.23;;;3.13;;
3527;SDS011;1778;47.966;7.854;2023-05-07T02:02:55;3.10;;;3.00;;
3527;SDS011;1778;47.966;7.854;2023-05-07T02:04:09;3.80;;;3.70;;
3527;SDS011;1778;47.966;7.854;2023-05-07T02:05:10;3.50;;;3.30;;
3527;SDS011;1778;47.966;7.854;2023-05-07T02:06:13;3.73;;;3.53;;
3527;SDS011;1778;47.966;7.854;2023-05-07T02:07:14;4.10;;;3.40;;
3527;SDS011;1778;47.966;7.854;2023-05-07T02:08:16;3.40;;;3.30;;
3527;SDS011;1778;47.966;7.854;2023-05-07T02:09:18;3.50;;;3.40;;
3527;SDS011;1778;47.966;7.854;2023-05-07T02:10:21;3.60;;;3.30;;
3527;SDS011;1778;47.966;7.854;2023-05-07T02:11:23;3.53;;;3.43;;
3527;SDS011;1778;47.966;7.854;2023-05-07T02:12:26;3.63;;;3.53;;
3527;SDS011;1778;47.966;7.854;2023-05-07T02:13:29;3.40;;;3.30;;
3527;SDS011;1778;47.966;7.854;2023-05-07T02:14:33;4.00;;;3.90;;
3527;SDS011;1778;47.966;7.854;2023-05-07T02:15:34;3.97;;;3.63;;
3527;SDS011;1778;47.966;7.854;2023-05-07T02:16:37;3.87;;;3.77;;
3527;SDS011;1778;47.966;7.854;2023-05-07T02:17:58;3.73;;;3.63;;
3527;SDS011;1778;47.966;7.854;2023-05-07T02:19:08;9.50;;;3.73;;
3527;SDS011;1778;47.966;7.854;2023-05-07T02:20:10;5.53;;;5.03;;
3527;SDS011;1778;47.966;7.854;2023-05-07T02:21:15;3.40;;;3.40;;
3527;SDS011;1778;47.966;7.854;2023-05-07T02:22:16;3.67;;;3.57;;
3527;SDS011;1778;47.966;7.854;2023-05-07T02:23:19;3.37;;;3.37;;
3527;SDS011;1778;47.966;7.854;2023-05-07T02:24:20;3.50;;;3.40;;
3527;SDS011;1778;47.966;7.854;2023-05-07T02:25:22;4.13;;;3.87;;
3527;SDS011;1778;47.966;7.854;2023-05-07T02:26:24;3.70;;;3.60;;
3527;SDS011;1778;47.966;7.854;2023-05-07T02:27:27;3.80;;;3.70;;
3527;SDS011;1778;47.966;7.854;2023-05-07T02:28:28;3.40;;;3.30;;
3527;SDS011;1778;47.966;7.854;2023-05-07T02:29:35;3.83;;;3.73;;
3527;SDS011;1778;47.966;7.854;2023-05-07T02:30:37;4.10;;;3.80;;
3527;SDS011;1778;47.966;7.854;2023-05-07T02:31:39;3.63;;;3.53;;
3527;SDS011;1778;47.966;7.854;2023-05-07T02:32:41;3.40;;;3.40;;
3527;SDS011;1778;47.966;7.854;2023-05-07T02:33:43;3.80;;;3.70;;
3527;SDS011;1778;47.966;7.854;2023-05-07T02:34:46;3.80;;;3.60;;
3527;SDS011;1778;47.966;7.854;2023-05-07T02:35:51;3.83;;;3.70;;
3527;SDS011;1778;47.966;7.854;2023-05-07T02:36:53;3.53;;;3.43;;
3527;SDS011;1778;47.966;7.854;2023-05-07T02:37:57;4.20;;;4.10;;
3527;SDS011;1778;47.966;7.854;2023-05-07T02:38:59;3.60;;;3.60;;
3527;SDS011;1778;47.966;7.854;2023-05-07T02:40:01;3.60;;;3.50;;
3527;SDS011;1778;47.966;7.854;2023-05-07T02:41:04;3.40;;;3.30;;
3527;SDS011;1778;47.966;7.854;2023-05-07T02:42:06;3.90;;;3.80;;
3527;SDS011;1778;47.966;7.854;2023-05-07T02:43:08;3.37;;;3.30;;
3527;SDS011;1778;47.966;7.854;2023-05-07T02:44:10;4.20;;;4.10;;
3527;SDS011;1778;47.966;7.854;2023-05-07T02:45:12;12.73;;;3.83;;
3527;SDS011;1778;47.966;7.854;2023-05-07T02:46:16;4.50;;;4.27;;
3527;SDS011;1778;47.966;7.854;2023-05-07T02:47:21;9.03;;;4.10;;
3527;SDS011;1778;47.966;7.854;2023-05-07T02:48:23;4.00;;;3.90;;
3527;SDS011;1778;47.966;7.854;2023-05-07T02:49:25;4.00;;;3.90;;
3527;SDS011;1778;47.966;7.854;2023-05-07T02:50:26;3.90;;;3.80;;
3527;SDS011;1778;47.966;7.854;2023-05-07T02:51:29;4.80;;;4.70;;
3527;SDS011;1778;47.966;7.854;2023-05-07T02:52:34;4.17;;;4.03;;
3527;SDS011;1778;47.966;7.854;2023-05-07T02:53:36;4.07;;;3.97;;
3527;SDS011;1778;47.966;7.854;2023-05-07T02:54:37;4.30;;;4.20;;
3527;SDS011;1778;47.966;7.854;2023-05-07T02:55:39;3.60;;;3.60;;
3527;SDS011;1778;47.966;7.854;2023-05-07T02:56:40;3.83;;;3.73;;
3527;SDS011;1778;47.966;7.854;2023-05-07T02:57:42;3.77;;;3.70;;
3527;SDS011;1778;47.966;7.854;2023-05-07T02:58:44;4.30;;;4.20;;
3527;SDS011;1778;47.966;7.854;2023-05-07T02:59:46;3.50;;;3.50;;
3527;SDS011;1778;47.966;7.854;2023-05-07T03:00:49;6.27;;;5.87;;
3527;SDS011;1778;47.966;7.854;2023-05-07T03:02:02;8.83;;;3.63;;
3527;SDS011;1778;47.966;7.854;2023-05-07T03:03:03;3.67;;;3.57;;
3527;SDS011;1778;47.966;7.854;2023-05-07T03:04:05;4.13;;;4.03;;
3527;SDS011;1778;47.966;7.854;2023-05-07T03:05:06;3.60;;;3.57;;
3527;SDS011;1778;47.966;7.854;2023-05-07T03:06:09;3.73;;;3.63;;
3527;SDS011;1778;47.966;7.854;2023-05-07T03:07:11;4.20;;;4.00;;
3527;SDS011;1778;47.966;7.854;2023-05-07T03:08:12;3.40;;;3.30;;
3527;SDS011;1778;47.966;7.854;2023-05-07T03:09:14;4.13;;;4.03;;
3527;SDS011;1778;47.966;7.854;2023-05-07T03:10:16;4.43;;;4.30;;
3527;SDS011;1778;47.966;7.854;2023-05-07T03:11:17;3.87;;;3.77;;
3527;SDS011;1778;47.966;7.854;2023-05-07T03:12:19;3.47;;;3.37;;
3527;SDS011;1778;47.966;7.854;2023-05-07T03:13:21;4.30;;;3.90;;
3527;SDS011;1778;47.966;7.854;2023-05-07T03:14:22;4.00;;;3.90;;
3527;SDS011;1778;47.966;7.854;2023-05-07T03:15:24;3.90;;;3.80;;
3527;SDS011;1778;47.966;7.854;2023-05-07T03:16:26;4.00;;;3.80;;
3527;SDS011;1778;47.966;7.854;2023-05-07T03:17:28;4.47;;;4.27;;
3527;SDS011;1778;47.966;7.854;2023-05-07T03:18:30;3.90;;;3.80;;
3527;SDS011;1778;47.966;7.854;2023-05-07T03:19:32;4.03;;;3.93;;
3527;SDS011;1778;47.966;7.854;2023-05-07T03:20:34;3.90;;;3.80;;
3527;SDS011;1778;47.966;7.854;2023-05-07T03:21:37;3.87;;;3.77;;
3527;SDS011;1778;47.966;7.854;2023-05-07T03:22:39;4.10;;;4.00;;
3527;SDS011;1778;47.966;7.854;2023-05-07T03:23:41;4.27;;;4.17;;
3527;SDS011;1778;47.966;7.854;2023-05-07T03:24:42;3.97;;;3.87;;
3527;SDS011;1778;47.966;7.854;2023-05-07T03:25:43;3.97;;;3.80;;
3527;SDS011;1778;47.966;7.854;2023-05-07T03:26:46;4.00;;;3.90;;
3527;SDS011;1778;47.966;7.854;2023-05-07T03:27:48;4.10;;;4.00;;
3527;SDS011;1778;47.966;7.854;2023-05-07T03:28:54;3.60;;;3.60;;
3527;SDS011;1778;47.966;7.854;2023-05-07T03:29:56;3.93;;;3.73;;
3527;SDS011;1778;47.966;7.854;2023-05-07T03:30:58;4.13;;;4.03;;
3527;SDS011;1778;47.966;7.854;2023-05-07T03:32:00;4.33;;;4.23;;
3527;SDS011;1778;47.966;7.854;2023-05-07T03:33:01;4.10;;;4.00;;
3527;SDS011;1778;47.966;7.854;2023-05-07T03:34:03;3.60;;;3.50;;
3527;SDS011;1778;47.966;7.854;2023-05-07T03:35:05;3.93;;;3.83;;
3527;SDS011;1778;47.966;7.854;2023-05-07T03:36:07;4.53;;;4.33;;
3527;SDS011;1778;47.966;7.854;2023-05-07T03:37:09;3.87;;;3.77;;
3527;SDS011;1778;47.966;7.854;2023-05-07T03:38:11;4.07;;;3.97;;
3527;SDS011;1778;47.966;7.854;2023-05-07T03:39:12;3.97;;;3.87;;
3527;SDS011;1778;47.966;7.854;2023-05-07T03:40:14;4.37;;;4.27;;
3527;SDS011;1778;47.966;7.854;2023-05-07T03:41:20;4.40;;;4.30;;
3527;SDS011;1778;47.966;7.854;2023-05-07T03:42:23;3.80;;;3.70;;
3527;SDS011;1778;47.966;7.854;2023-05-07T03:43:26;4.33;;;4.23;;
3527;SDS011;1778;47.966;7.854;2023-05-07T03:44:34;4.10;;;4.00;;
3527;SDS011;1778;47.966;7.854;2023-05-07T03:45:37;4.67;;;4.47;;
3527;SDS011;1778;47.966;7.854;2023-05-07T03:46:49;4.30;;;4.20;;
3527;SDS011;1778;47.966;7.854;2023-05-07T03:47:50;4.80;;;4.70;;
3527;SDS011;1778;47.966;7.854;2023-05-07T03:48:54;4.30;;;4.20;;
3527;SDS011;1778;47.966;7.854;2023-05-07T03:49:55;4.87;;;4.67;;
3527;SDS011;1778;47.966;7.854;2023-05-07T03:50:58;4.73;;;4.43;;
3527;SDS011;1778;47.966;7.854;2023-05-07T03:52:04;4.50;;;4.40;;
3527;SDS011;1778;47.966;7.854;2023-05-07T03:53:06;4.60;;;4.50;;
3527;SDS011;1778;47.966;7.854;2023-05-07T03:54:12;4.00;;;3.90;;
3527;SDS011;1778;47.966;7.854;2023-05-07T03:55:18;4.30;;;4.10;;
3527;SDS011;1778;47.966;7.854;2023-05-07T03:56:24;3.50;;;3.40;;
3527;SDS011;1778;47.966;7.854;2023-05-07T03:57:29;4.10;;;4.00;;
3527;SDS011;1778;47.966;7.854;2023-05-07T03:58:31;4.23;;;4.13;;
3527;SDS011;1778;47.966;7.854;2023-05-07T03:59:38;4.50;;;4.40;;
3527;SDS011;1778;47.966;7.854;2023-05-07T04:00:41;4.57;;;4.40;;
3527;SDS011;1778;47.966;7.854;2023-05-07T04:01:52;4.50;;;4.40;;
3527;SDS011;1778;47.966;7.854;2023-05-07T04:02:56;4.10;;;4.00;;
3527;SDS011;1778;47.966;7.854;2023-05-07T04:04:00;4.37;;;4.27;;
3527;SDS011;1778;47.966;7.854;2023-05-07T04:05:02;4.10;;;4.00;;
3527;SDS011;1778;47.966;7.854;2023-05-07T04:06:05;4.27;;;4.03;;
3527;SDS011;1778;47.966;7.854;2023-05-07T04:07:08;4.20;;;4.10;;
3527;SDS011;1778;47.966;7.854;2023-05-07T04:08:15;4.27;;;4.17;;
3527;SDS011;1778;47.966;7.854;2023-05-07T04:09:20;3.80;;;3.70;;
3527;SDS011;1778;47.966;7.854;2023-05-07T04:10:22;4.30;;;4.20;;
3527;SDS011;1778;47.966;7.854;2023-05-07T04:11:27;4.10;;;4.00;;
3527;SDS011;1778;47.966;7.854;2023-05-07T04:12:29;4.50;;;4.30;;
3527;SDS011;1778;47.966;7.854;2023-05-07T04:13:31;4.47;;;4.37;;
3527;SDS011;1778;47.966;7.854;2023-05-07T04:14:35;3.67;;;3.57;;
3527;SDS011;1778;47.966;7.854;2023-05-07T04:15:37;3.47;;;3.47;;
3527;SDS011;1778;47.966;7.854;2023-05-07T04:16:42;3.67;;;3.60;;
3527;SDS011;1778;47.966;7.854;2023-05-07T04:17:44;5.83;;;4.40;;
3527;SDS011;1778;47.966;7.854;2023-05-07T04:18:48;3.90;;;3.80;;
3527;SDS011;1778;47.966;7.854;2023-05-07T04:19:50;4.20;;;4.10;;
3527;SDS011;1778;47.966;7.854;2023-05-07T04:20:52;4.00;;;3.87;;
3527;SDS011;1778;47.966;7.854;2023-05-07T04:21:53;3.83;;;3.73;;
3527;SDS011;1778;47.966;7.854;2023-05-07T04:22:54;3.73;;;3.60;;
3527;SDS011;1778;47.966;7.854;2023-05-07T04:23:57;3.70;;;3.60;;
3527;SDS011;1778;47.966;7.854;2023-05-07T04:24:58;3.60;;;3.50;;
3527;SDS011;1778;47.966;7.854;2023-05-07T04:26:00;3.60;;;3.60;;
3527;SDS011;1778;47.966;7.854;2023-05-07T04:27:07;3.70;;;3.60;;
3527;SDS011;1778;47.966;7.854;2023-05-07T04:28:09;4.00;;;3.90;;
3527;SDS011;1778;47.966;7.854;2023-05-07T04:29:11;3.40;;;3.40;;
3527;SDS011;1778;47.966;7.854;2023-05-07T04:30:12;3.63;;;3.43;;
3527;SDS011;1778;47.966;7.854;2023-05-07T04:31:15;4.43;;;4.03;;
3527;SDS011;1778;47.966;7.854;2023-05-07T04:32:20;4.07;;;3.97;;
3527;SDS011;1778;47.966;7.854;2023-05-07T04:33:21;3.70;;;3.60;;
3527;SDS011;1778;47.966;7.854;2023-05-07T04:34:24;3.97;;;3.67;;
3527;SDS011;1778;47.966;7.854;2023-05-07T04:35:26;3.80;;;3.70;;
3527;SDS011;1778;47.966;7.854;2023-05-07T04:36:27;3.90;;;3.80;;
3527;SDS011;1778;47.966;7.854;2023-05-07T04:37:34;3.10;;;3.10;;
3527;SDS011;1778;47.966;7.854;2023-05-07T04:38:36;3.17;;;3.07;;
3527;SDS011;1778;47.966;7.854;2023-05-07T04:39:38;3.17;;;3.07;;
3527;SDS011;1778;47.966;7.854;2023-05-07T04:40:40;3.87;;;3.73;;
3527;SDS011;1778;47.966;7.854;2023-05-07T04:41:44;3.30;;;3.20;;
3527;SDS011;1778;47.966;7.854;2023-05-07T04:42:46;3.07;;;3.07;;
3527;SDS011;1778;47.966;7.854;2023-05-07T04:43:48;3.30;;;3.20;;
3527;SDS011;1778;47.966;7.854;2023-05-07T04:44:52;3.57;;;3.43;;
3527;SDS011;1778;47.966;7.854;2023-05-07T04:45:55;3.60;;;3.40;;
3527;SDS011;1778;47.966;7.854;2023-05-07T04:46:59;3.60;;;3.50;;
3527;SDS011;1778;47.966;7.854;2023-05-07T04:48:01;3.63;;;3.53;;
3527;SDS011;1778;47.966;7.854;2023-05-07T04:49:04;3.40;;;3.40;;
3527;SDS011;1778;47.966;7.854;2023-05-07T04:50:06;3.30;;;3.20;;
3527;SDS011;1778;47.966;7.854;2023-05-07T04:51:09;3.53;;;3.27;;
3527;SDS011;1778;47.966;7.854;2023-05-07T04:52:11;3.07;;;2.97;;
3527;SDS011;1778;47.966;7.854;2023-05-07T04:53:13;3.30;;;3.20;;
3527;SDS011;1778;47.966;7.854;2023-05-07T04:54:14;2.87;;;2.87;;
3527;SDS011;1778;47.966;7.854;2023-05-07T04:55:16;3.50;;;3.40;;
3527;SDS011;1778;47.966;7.854;2023-05-07T04:56:18;2.90;;;2.83;;
3527;SDS011;1778;47.966;7.854;2023-05-07T04:57:20;2.70;;;2.70;;
3527;SDS011;1778;47.966;7.854;2023-05-07T04:58:22;3.00;;;3.00;;
3527;SDS011;1778;47.966;7.854;2023-05-07T04:59:24;2.30;;;2.30;;
3527;SDS011;1778;47.966;7.854;2023-05-07T05:00:26;3.40;;;3.30;;
3527;SDS011;1778;47.966;7.854;2023-05-07T05:01:28;3.87;;;3.77;;
3527;SDS011;1778;47.966;7.854;2023-05-07T05:02:30;3.13;;;3.03;;
3527;SDS011;1778;47.966;7.854;2023-05-07T05:03:32;3.60;;;3.40;;
3527;SDS011;1778;47.966;7.854;2023-05-07T05:04:34;3.00;;;3.00;;
3527;SDS011;1778;47.966;7.854;2023-05-07T05:05:36;2.73;;;2.63;;
3527;SDS011;1778;47.966;7.854;2023-05-07T05:06:38;3.53;;;3.43;;
3527;SDS011;1778;47.966;7.854;2023-05-07T05:07:41;2.90;;;2.90;;
3527;SDS011;1778;47.966;7.854;2023-05-07T05:08:43;2.70;;;2.60;;
3527;SDS011;1778;47.966;7.854;2023-05-07T05:09:44;2.70;;;2.60;;
3527;SDS011;1778;47.966;7.854;2023-05-07T05:10:46;2.33;;;2.33;;
3527;SDS011;1778;47.966;7.854;2023-05-07T05:11:49;2.80;;;2.70;;
3527;SDS011;1778;47.966;7.854;2023-05-07T05:12:51;3.30;;;3.20;;
3527;SDS011;1778;47.966;7.854;2023-05-07T05:13:54;10.03;;;2.70;;
3527;SDS011;1778;47.966;7.854;2023-05-07T05:14:56;2.47;;;2.40;;
3527;SDS011;1778;47.966;7.854;2023-05-07T05:15:58;2.30;;;2.30;;
3527;SDS011;1778;47.966;7.854;2023-05-07T05:17:03;2.57;;;2.20;;
3527;SDS011;1778;47.966;7.854;2023-05-07T05:18:04;5.63;;;2.93;;
3527;SDS011;1778;47.966;7.854;2023-05-07T05:19:06;2.40;;;2.40;;
3527;SDS011;1778;47.966;7.854;2023-05-07T05:20:11;2.73;;;2.63;;
3527;SDS011;1778;47.966;7.854;2023-05-07T05:21:14;2.97;;;2.87;;
3527;SDS011;1778;47.966;7.854;2023-05-07T05:22:17;2.47;;;2.40;;
3527;SDS011;1778;47.966;7.854;2023-05-07T05:23:19;2.83;;;2.77;;
3527;SDS011;1778;47.966;7.854;2023-05-07T05:24:21;2.20;;;2.20;;
3527;SDS011;1778;47.966;7.854;2023-05-07T05:25:23;2.43;;;2.33;;
3527;SDS011;1778;47.966;7.854;2023-05-07T05:26:24;2.70;;;2.60;;
3527;SDS011;1778;47.966;7.854;2023-05-07T05:27:26;2.80;;;2.70;;
3527;SDS011;1778;47.966;7.854;2023-05-07T05:28:28;2.73;;;2.67;;
3527;SDS011;1778;47.966;7.854;2023-05-07T05:29:30;3.50;;;3.20;;
3527;SDS011;1778;47.966;7.854;2023-05-07T05:30:32;2.37;;;2.37;;
3527;SDS011;1778;47.966;7.854;2023-05-07T05:31:34;2.30;;;2.20;;
3527;SDS011;1778;47.966;7.854;2023-05-07T05:32:36;8.73;;;3.33;;
3527;SDS011;1778;47.966;7.854;2023-05-07T05:33:38;2.50;;;2.40;;
3527;SDS011;1778;47.966;7.854;2023-05-07T05:34:41;2.37;;;2.30;;
3527;SDS011;1778;47.966;7.854;2023-05-07T05:35:42;2.30;;;2.30;;
3527;SDS011;1778;47.966;7.854;2023-05-07T05:36:45;2.40;;;2.40;;
3527;SDS011;1778;47.966;7.854;2023-05-07T05:37:48;2.30;;;2.30;;
3527;SDS011;1778;47.966;7.854;2023-05-07T05:38:51;2.27;;;2.17;;
3527;SDS011;1778;47.966;7.854;2023-05-07T05:39:53;2.57;;;2.47;;
3527;SDS011;1778;47.966;7.854;2023-05-07T05:40:55;2.30;;;2.20;;
3527;SDS011;1778;47.966;7.854;2023-05-07T05:41:57;2.20;;;2.20;;
3527;SDS011;1778;47.966;7.854;2023-05-07T05:42:59;2.50;;;2.50;;
3527;SDS011;1778;47.966;7.854;2023-05-07T05:44:01;3.27;;;3.07;;
3527;SDS011;1778;47.966;7.854;2023-05-07T05:45:03;6.20;;;2.40;;
3527;SDS011;1778;47.966;7.854;2023-05-07T05:46:06;2.73;;;2.63;;
3527;SDS011;1778;47.966;7.854;2023-05-07T05:47:09;2.53;;;2.43;;
3527;SDS011;1778;47.966;7.854;2023-05-07T05:48:11;2.63;;;2.53;;
3527;SDS011;1778;47.966;7.854;2023-05-07T05:49:13;2.33;;;2.33;;
3527;SDS011;1778;47.966;7.854;2023-05-07T05:50:16;2.63;;;2.43;;
3527;SDS011;1778;47.966;7.854;2023-05-07T05:51:18;2.20;;;2.20;;
3527;SDS011;1778;47.966;7.854;2023-05-07T05:52:20;2.27;;;2.27;;
3527;SDS011;1778;47.966;7.854;2023-05-07T05:53:24;2.67;;;2.57;;
3527;SDS011;1778;47.966;7.854;2023-05-07T05:54:27;2.27;;;2.17;;
3527;SDS011;1778;47.966;7.854;2023-05-07T05:55:29;2.73;;;2.63;;
3527;SDS011;1778;47.966;7.854;2023-05-07T05:56:31;3.10;;;3.00;;
3527;SDS011;1778;47.966;7.854;2023-05-07T05:57:32;2.20;;;2.20;;
3527;SDS011;1778;47.966;7.854;2023-05-07T05:58:34;2.67;;;2.57;;
3527;SDS011;1778;47.966;7.854;2023-05-07T05:59:39;2.47;;;2.43;;
3527;SDS011;1778;47.966;7.854;2023-05-07T06:00:41;2.10;;;2.10;;
3527;SDS011;1778;47.966;7.854;2023-05-07T06:01:43;2.73;;;2.63;;
3527;SDS011;1778;47.966;7.854;2023-05-07T06:02:44;2.33;;;2.23;;
3527;SDS011;1778;47.966;7.854;2023-05-07T06:03:52;2.70;;;2.60;;
3527;SDS011;1778;47.966;7.854;2023-05-07T06:04:53;2.17;;;2.17;;
3527;SDS011;1778;47.966;7.854;2023-05-07T06:05:56;2.77;;;2.67;;
3527;SDS011;1778;47.966;7.854;2023-05-07T06:06:58;1.93;;;1.93;;
3527;SDS011;1778;47.966;7.854;2023-05-07T06:07:59;2.77;;;2.67;;
3527;SDS011;1778;47.966;7.854;2023-05-07T06:09:05;1.90;;;1.90;;
3527;SDS011;1778;47.966;7.854;2023-05-07T06:10:14;2.50;;;2.40;;
3527;SDS011;1778;47.966;7.854;2023-05-07T06:11:16;2.43;;;2.33;;
3527;SDS011;1778;47.966;7.854;2023-05-07T06:12:20;2.50;;;2.40;;
3527;SDS011;1778;47.966;7.854;2023-05-07T06:13:22;2.63;;;2.53;;
3527;SDS011;1778;47.966;7.854;2023-05-07T06:14:24;2.40;;;2.30;;
3527;SDS011;1778;47.966;7.854;2023-05-07T06:15:28;2.53;;;2.43;;
3527;SDS011;1778;47.966;7.854;2023-05-07T06:16:30;2.57;;;2.47;;
3527;SDS011;1778;47.966;7.854;2023-05-07T06:17:31;2.90;;;2.80;;
3527;SDS011;1778;47.966;7.854;2023-05-07T06:18:33;2.70;;;2.60;;
3527;SDS011;1778;47.966;7.854;2023-05-07T06:19:37;2.67;;;2.57;;
3527;SDS011;1778;47.966;7.854;2023-05-07T06:20:39;2.00;;;2.00;;
3527;SDS011;1778;47.966;7.854;2023-05-07T06:21:46;2.80;;;2.70;;
3527;SDS011;1778;47.966;7.854;2023-05-07T06:22:47;2.40;;;2.40;;
3527;SDS011;1778;47.966;7.854;2023-05-07T06:23:49;2.30;;;2.30;;
3527;SDS011;1778;47.966;7.854;2023-05-07T06:24:53;2.53;;;2.43;;
3527;SDS011;1778;47.966;7.854;2023-05-07T06:25:54;2.40;;;2.40;;
3527;SDS011;1778;47.966;7.854;2023-05-07T06:27:00;2.17;;;2.17;;
3527;SDS011;1778;47.966;7.854;2023-05-07T06:28:03;2.00;;;2.00;;
3527;SDS011;1778;47.966;7.854;2023-05-07T06:29:06;2.40;;;2.30;;
3527;SDS011;1778;47.966;7.854;2023-05-07T06:30:08;2.47;;;2.37;;
3527;SDS011;1778;47.966;7.854;2023-05-07T06:31:14;2.07;;;2.07;;